createdAt,value
2023-04-27T00:00:45.878Z,3498.00
2023-04-27T00:01:46.026Z,3511.00
2023-04-27T00:02:46.211Z,3490.00
2023-04-27T00:03:46.112Z,3496.00
2023-04-27T00:04:46.177Z,3495.00
2023-04-27T00:05:46.244Z,3494.00
2023-04-27T00:06:46.227Z,3500.00
2023-04-27T00:07:46.198Z,3491.00
2023-04-27T00:08:46.286Z,3491.00
2023-04-27T00:09:46.281Z,3482.00
2023-04-27T00:10:46.366Z,3485.00
2023-04-27T00:11:46.406Z,3482.00
2023-04-27T00:12:46.434Z,3482.00
2023-04-27T00:13:46.466Z,3481.00
2023-04-27T00:14:46.605Z,3485.00
2023-04-27T00:15:46.582Z,3479.00
2023-04-27T00:16:46.669Z,3472.00
2023-04-27T00:17:46.749Z,3472.00
2023-04-27T00:18:46.787Z,3457.00
2023-04-27T00:19:46.801Z,3462.00
2023-04-27T00:20:46.857Z,3475.00
2023-04-27T00:21:46.904Z,3456.00
2023-04-27T00:22:46.907Z,3451.00
2023-04-27T00:23:46.997Z,3456.00
2023-04-27T00:24:47.059Z,3457.00
2023-04-27T00:25:47.118Z,3445.00
2023-04-27T00:26:47.162Z,3452.00
2023-04-27T00:27:47.194Z,3444.00
2023-04-27T00:28:47.288Z,3450.00
2023-04-27T00:29:47.314Z,3430.00
2023-04-27T00:30:47.369Z,3446.00
2023-04-27T00:31:47.447Z,3431.00
2023-04-27T00:32:47.567Z,3446.00
2023-04-27T00:33:47.578Z,3436.00
2023-04-27T00:34:47.581Z,3428.00
2023-04-27T00:35:47.648Z,3427.00
2023-04-27T00:36:47.718Z,3432.00
2023-04-27T00:37:47.758Z,3429.00
2023-04-27T00:38:47.814Z,3417.00
2023-04-27T00:39:47.884Z,3414.00
2023-04-27T00:40:47.936Z,3413.00
2023-04-27T00:41:47.998Z,3421.00
2023-04-27T00:42:48.057Z,3426.00
2023-04-27T00:43:48.072Z,3409.00
2023-04-27T00:44:48.154Z,3411.00
2023-04-27T00:45:48.175Z,3405.00
2023-04-27T00:46:48.231Z,3415.00
2023-04-27T00:47:48.346Z,3401.00
2023-04-27T00:48:48.314Z,3391.00
2023-04-27T00:49:48.369Z,3388.00
2023-04-27T00:50:48.459Z,3399.00
2023-04-27T00:51:48.480Z,3390.00
2023-04-27T00:52:48.520Z,3393.00
2023-04-27T00:53:48.557Z,3396.00
2023-04-27T00:54:48.612Z,3388.00
2023-04-27T00:55:48.710Z,3380.00
2023-04-27T00:56:48.759Z,3387.00
2023-04-27T00:57:48.763Z,3367.00
2023-04-27T00:58:48.790Z,3386.00
2023-04-27T00:59:48.871Z,3375.00
2023-04-27T01:00:48.945Z,3370.00
2023-04-27T01:01:49.104Z,3369.00
2023-04-27T01:02:49.248Z,3368.00
2023-04-27T01:03:49.162Z,3371.00
2023-04-27T01:04:49.174Z,3372.00
2023-04-27T01:05:49.176Z,3369.00
2023-04-27T01:06:49.236Z,3369.00
2023-04-27T01:07:49.306Z,3380.00
2023-04-27T01:08:49.312Z,3346.00
2023-04-27T01:09:49.400Z,3352.00
2023-04-27T01:10:49.464Z,3358.00
2023-04-27T01:11:49.607Z,3353.00
2023-04-27T01:12:49.580Z,3354.00
2023-04-27T01:13:49.651Z,3349.00
2023-04-27T01:14:49.708Z,3352.00
2023-04-27T01:15:49.731Z,3359.00
2023-04-27T01:16:49.867Z,3333.00
2023-04-27T01:17:49.955Z,3335.00
2023-04-27T01:18:49.897Z,3330.00
2023-04-27T01:19:49.984Z,3340.00
2023-04-27T01:20:50.134Z,3317.00
2023-04-27T01:21:50.083Z,3339.00
2023-04-27T01:22:50.115Z,3323.00
2023-04-27T01:23:50.196Z,3332.00
2023-04-27T01:24:50.228Z,3334.00
2023-04-27T01:25:50.335Z,3327.00
2023-04-27T01:26:50.390Z,3314.00
2023-04-27T01:27:50.388Z,3324.00
2023-04-27T01:28:50.464Z,3310.00
2023-04-27T01:29:50.566Z,3318.00
2023-04-27T01:30:50.696Z,3313.00
2023-04-27T01:31:50.625Z,3311.00
2023-04-27T01:32:50.736Z,3299.00
2023-04-27T01:33:50.742Z,3301.00
2023-04-27T01:34:50.812Z,3308.00
2023-04-27T01:35:50.892Z,3304.00
2023-04-27T01:36:50.917Z,3299.00
2023-04-27T01:37:50.976Z,3303.00
2023-04-27T01:38:51.021Z,3303.00
2023-04-27T01:39:51.042Z,3300.00
2023-04-27T01:40:51.096Z,3290.00
2023-04-27T01:41:51.165Z,3284.00
2023-04-27T01:42:51.224Z,3285.00
2023-04-27T01:43:51.280Z,3289.00
2023-04-27T01:44:51.337Z,3285.00
2023-04-27T01:45:51.467Z,3275.00
2023-04-27T01:46:51.456Z,3268.00
2023-04-27T01:47:51.530Z,3282.00
2023-04-27T01:48:51.612Z,3257.00
2023-04-27T01:49:51.608Z,3283.00
2023-04-27T01:50:51.696Z,3289.00
2023-04-27T01:51:51.755Z,3277.00
2023-04-27T01:52:51.776Z,3260.00
2023-04-27T01:53:51.828Z,3270.00
2023-04-27T01:54:51.922Z,3256.00
2023-04-27T01:55:52.028Z,3264.00
2023-04-27T01:56:52.039Z,3273.00
2023-04-27T01:57:52.089Z,3250.00
2023-04-27T01:58:52.123Z,3239.00
2023-04-27T01:59:52.209Z,3249.00
2023-04-27T02:00:52.354Z,3242.00
2023-04-27T02:01:52.362Z,3243.00
2023-04-27T02:02:52.483Z,3248.00
2023-04-27T02:03:52.521Z,3242.00
2023-04-27T02:04:52.568Z,3232.00
2023-04-27T02:05:52.556Z,3238.00
2023-04-27T02:06:52.617Z,3243.00
2023-04-27T02:07:52.670Z,3231.00
2023-04-27T02:08:52.722Z,3214.00
2023-04-27T02:09:52.758Z,3228.00
2023-04-27T02:10:52.859Z,3225.00
2023-04-27T02:11:52.877Z,3220.00
2023-04-27T02:12:52.967Z,3227.00
2023-04-27T02:13:53.007Z,3221.00
2023-04-27T02:14:53.085Z,3217.00
2023-04-27T02:15:53.111Z,3223.00
2023-04-27T02:16:53.144Z,3218.00
2023-04-27T02:17:53.293Z,3219.00
2023-04-27T02:18:53.310Z,3214.00
2023-04-27T02:19:53.307Z,3218.00
2023-04-27T02:20:53.423Z,3210.00
2023-04-27T02:21:53.488Z,3198.00
2023-04-27T02:22:53.515Z,3201.00
2023-04-27T02:23:53.535Z,3199.00
2023-04-27T02:24:53.618Z,3198.00
2023-04-27T02:25:53.692Z,3199.00
2023-04-27T02:26:53.722Z,3186.00
2023-04-27T02:27:53.749Z,3182.00
2023-04-27T02:28:53.835Z,3194.00
2023-04-27T02:29:53.835Z,3189.00
2023-04-27T02:30:53.894Z,3194.00
2023-04-27T02:31:54.033Z,3177.00
2023-04-27T02:32:54.064Z,3173.00
2023-04-27T02:33:54.072Z,3184.00
2023-04-27T02:34:54.087Z,3170.00
2023-04-27T02:35:54.208Z,3176.00
2023-04-27T02:36:54.214Z,3177.00
2023-04-27T02:37:54.253Z,3162.00
2023-04-27T02:38:54.312Z,3163.00
2023-04-27T02:39:54.422Z,3164.00
2023-04-27T02:40:54.411Z,3154.00
2023-04-27T02:41:54.486Z,3170.00
2023-04-27T02:42:54.549Z,3159.00
2023-04-27T02:43:54.600Z,3159.00
2023-04-27T02:44:54.632Z,3142.00
2023-04-27T02:45:54.686Z,3160.00
2023-04-27T02:46:54.756Z,3146.00
2023-04-27T02:47:54.850Z,3166.00
2023-04-27T02:48:54.831Z,3153.00
2023-04-27T02:49:54.913Z,3138.00
2023-04-27T02:50:54.978Z,3152.00
2023-04-27T02:51:55.025Z,3151.00
2023-04-27T02:52:55.065Z,3142.00
2023-04-27T02:53:55.122Z,3137.00
2023-04-27T02:54:55.257Z,3139.00
2023-04-27T02:55:55.234Z,3133.00
2023-04-27T02:56:55.280Z,3127.00
2023-04-27T02:57:55.420Z,3134.00
2023-04-27T02:58:55.418Z,3114.00
2023-04-27T02:59:55.480Z,3132.00
2023-04-27T03:00:55.579Z,3115.00
2023-04-27T03:01:55.592Z,3111.00
2023-04-27T03:02:55.819Z,3125.00
2023-04-27T03:03:55.832Z,3115.00
2023-04-27T03:04:55.811Z,3130.00
2023-04-27T03:05:55.891Z,3113.00
2023-04-27T03:06:55.903Z,3113.00
2023-04-27T03:07:56.000Z,3114.00
2023-04-27T03:08:56.036Z,3118.00
2023-04-27T03:09:56.077Z,3100.00
2023-04-27T03:10:56.129Z,3106.00
2023-04-27T03:11:56.194Z,3090.00
2023-04-27T03:12:56.274Z,3094.00
2023-04-27T03:13:56.330Z,3107.00
2023-04-27T03:14:56.373Z,3097.00
2023-04-27T03:15:56.526Z,3093.00
2023-04-27T03:16:56.553Z,3087.00
2023-04-27T03:17:56.604Z,3100.00
2023-04-27T03:18:56.616Z,3081.00
2023-04-27T03:19:56.681Z,3089.00
2023-04-27T03:20:56.743Z,3095.00
2023-04-27T03:21:56.795Z,3095.00
2023-04-27T03:22:56.907Z,3097.00
2023-04-27T03:23:56.908Z,3087.00
2023-04-27T03:24:56.960Z,3095.00
2023-04-27T03:25:57.082Z,3073.00
2023-04-27T03:26:57.109Z,3074.00
2023-04-27T03:27:57.152Z,3077.00
2023-04-27T03:28:57.256Z,3076.00
2023-04-27T03:29:57.332Z,3075.00
2023-04-27T03:30:57.368Z,3067.00
2023-04-27T03:31:57.448Z,3076.00
2023-04-27T03:32:57.504Z,3073.00
2023-04-27T03:33:57.652Z,3064.00
2023-04-27T03:34:57.597Z,3053.00
2023-04-27T03:35:57.685Z,3054.00
2023-04-27T03:36:57.734Z,3048.00
2023-04-27T03:37:57.820Z,3045.00
2023-04-27T03:38:57.879Z,3048.00
2023-04-27T03:39:57.893Z,3042.00
2023-04-27T03:40:57.988Z,3039.00
2023-04-27T03:41:58.049Z,3055.00
2023-04-27T03:42:59.215Z,3045.00
2023-04-27T03:43:58.180Z,3039.00
2023-04-27T03:44:58.180Z,3010.00
2023-04-27T03:45:58.301Z,3037.00
2023-04-27T03:46:58.306Z,3042.00
2023-04-27T03:47:58.358Z,3040.00
2023-04-27T03:48:58.419Z,3032.00
2023-04-27T03:49:58.487Z,3021.00
2023-04-27T03:50:58.548Z,3008.00
2023-04-27T03:51:58.583Z,3026.00
2023-04-27T03:52:58.681Z,3021.00
2023-04-27T03:53:58.684Z,3022.00
2023-04-27T03:54:58.763Z,3029.00
2023-04-27T03:55:58.922Z,3027.00
2023-04-27T03:56:58.881Z,3007.00
2023-04-27T03:57:58.940Z,3010.00
2023-04-27T03:58:58.964Z,3027.00
2023-04-27T03:59:59.049Z,3013.00
2023-04-27T04:00:59.086Z,3020.00
2023-04-27T04:02:00.881Z,2993.00
2023-04-27T04:02:59.416Z,3012.00
2023-04-27T04:03:59.395Z,3015.00
2023-04-27T04:04:59.357Z,2971.00
2023-04-27T04:05:59.321Z,2985.00
2023-04-27T04:06:59.400Z,2952.00
2023-04-27T04:07:59.449Z,2929.00
2023-04-27T04:08:59.451Z,2903.00
2023-04-27T04:09:59.514Z,2877.00
2023-04-27T04:10:59.542Z,2867.00
2023-04-27T04:11:59.608Z,2829.00
2023-04-27T04:12:59.622Z,2796.00
2023-04-27T04:13:59.650Z,2766.00
2023-04-27T04:14:59.672Z,2745.00
2023-04-27T04:15:59.784Z,2706.00
2023-04-27T04:16:59.883Z,2687.00
2023-04-27T04:17:59.811Z,2670.00
2023-04-27T04:18:59.856Z,2641.00
2023-04-27T04:19:59.888Z,2644.00
2023-04-27T04:20:59.916Z,2631.00
2023-04-27T04:21:59.966Z,2621.00
2023-04-27T04:23:00.020Z,2601.00
2023-04-27T04:24:00.121Z,2579.00
2023-04-27T04:25:00.125Z,2580.00
2023-04-27T04:26:00.181Z,2585.00
2023-04-27T04:27:00.151Z,2552.00
2023-04-27T04:28:00.293Z,2551.00
2023-04-27T04:29:00.275Z,2547.00
2023-04-27T04:30:00.333Z,2544.00
2023-04-27T04:31:00.380Z,2506.00
2023-04-27T04:32:00.310Z,2509.00
2023-04-27T04:33:00.447Z,2487.00
2023-04-27T04:34:00.405Z,2493.00
2023-04-27T04:35:00.404Z,2498.00
2023-04-27T04:36:00.429Z,2495.00
2023-04-27T04:37:00.433Z,2495.00
2023-04-27T04:38:00.484Z,2488.00
2023-04-27T04:39:00.519Z,2504.00
2023-04-27T04:40:00.538Z,2498.00
2023-04-27T04:41:00.593Z,2505.00
2023-04-27T04:42:00.575Z,2501.00
2023-04-27T04:43:00.669Z,2502.00
2023-04-27T04:44:00.686Z,2508.00
2023-04-27T04:45:00.683Z,2499.00
2023-04-27T04:46:00.739Z,2499.00
2023-04-27T04:47:00.782Z,2508.00
2023-04-27T04:48:00.825Z,2514.00
2023-04-27T04:49:00.809Z,2516.00
2023-04-27T04:50:00.869Z,2519.00
2023-04-27T04:51:00.896Z,2536.00
2023-04-27T04:52:00.935Z,2512.00
2023-04-27T04:53:00.997Z,2520.00
2023-04-27T04:54:01.786Z,2525.00
2023-04-27T04:55:01.067Z,2513.00
2023-04-27T04:56:01.100Z,2523.00
2023-04-27T04:57:01.169Z,2505.00
2023-04-27T04:58:01.228Z,2506.00
2023-04-27T04:59:01.241Z,2520.00
2023-04-27T05:00:01.284Z,2506.00
2023-04-27T05:01:01.300Z,2511.00
2023-04-27T05:02:01.518Z,2510.00
2023-04-27T05:03:01.598Z,2533.00
2023-04-27T05:04:01.708Z,2507.00
2023-04-27T05:05:01.527Z,2514.00
2023-04-27T05:06:01.531Z,2528.00
2023-04-27T05:07:01.606Z,2521.00
2023-04-27T05:08:01.657Z,2507.00
2023-04-27T05:09:01.714Z,2516.00
2023-04-27T05:10:01.735Z,2510.00
2023-04-27T05:11:01.787Z,2512.00
2023-04-27T05:12:01.872Z,2513.00
2023-04-27T05:13:01.917Z,2512.00
2023-04-27T05:14:01.904Z,2510.00
2023-04-27T05:15:01.977Z,2518.00
2023-04-27T05:16:02.062Z,2505.00
2023-04-27T05:17:02.068Z,2510.00
2023-04-27T05:18:02.195Z,2509.00
2023-04-27T05:19:02.188Z,2515.00
2023-04-27T05:20:02.267Z,2517.00
2023-04-27T05:21:02.318Z,2511.00
2023-04-27T05:22:02.364Z,2508.00
2023-04-27T05:23:02.402Z,2520.00
2023-04-27T05:24:02.430Z,2498.00
2023-04-27T05:25:02.512Z,2518.00
2023-04-27T05:26:02.531Z,2494.00
2023-04-27T05:27:02.637Z,2489.00
2023-04-27T05:28:02.598Z,2496.00
2023-04-27T05:29:02.676Z,2500.00
2023-04-27T05:30:02.742Z,2509.00
2023-04-27T05:31:02.738Z,2498.00
2023-04-27T05:32:02.853Z,2494.00
2023-04-27T05:33:02.934Z,2504.00
2023-04-27T05:34:02.877Z,2491.00
2023-04-27T05:35:02.939Z,2495.00
2023-04-27T05:36:02.946Z,2499.00
2023-04-27T05:37:02.996Z,2492.00
2023-04-27T05:38:03.088Z,2495.00
2023-04-27T05:39:03.084Z,2496.00
2023-04-27T05:40:03.147Z,2486.00
2023-04-27T05:41:03.218Z,2494.00
2023-04-27T05:42:03.219Z,2505.00
2023-04-27T05:43:03.296Z,2479.00
2023-04-27T05:44:03.310Z,2493.00
2023-04-27T05:45:03.376Z,2502.00
2023-04-27T05:46:03.502Z,2509.00
2023-04-27T05:47:03.466Z,2502.00
2023-04-27T05:48:03.544Z,2531.00
2023-04-27T05:49:03.571Z,2507.00
2023-04-27T05:50:03.646Z,2516.00
2023-04-27T05:51:03.694Z,2536.00
2023-04-27T05:52:03.720Z,2541.00
2023-04-27T05:53:03.856Z,2540.00
2023-04-27T05:54:03.866Z,2550.00
2023-04-27T05:55:03.932Z,2563.00
2023-04-27T05:56:03.965Z,2561.00
2023-04-27T05:57:04.043Z,2571.00
2023-04-27T05:58:07.517Z,2595.00
2023-04-27T05:59:04.062Z,2596.00
2023-04-27T06:00:04.050Z,2603.00
2023-04-27T06:01:04.060Z,2612.00
2023-04-27T06:02:04.100Z,2645.00
2023-04-27T06:03:04.213Z,2696.00
2023-04-27T06:04:04.213Z,2667.00
2023-04-27T06:05:04.068Z,2717.00
2023-04-27T06:06:04.016Z,2721.00
2023-04-27T06:07:04.019Z,2737.00
2023-04-27T06:08:04.063Z,2747.00
2023-04-27T06:09:04.008Z,2777.00
2023-04-27T06:10:03.998Z,2790.00
2023-04-27T06:11:03.981Z,2798.00
2023-04-27T06:12:03.996Z,2782.00
2023-04-27T06:13:04.033Z,2773.00
2023-04-27T06:14:03.995Z,2780.00
2023-04-27T06:15:03.968Z,2811.00
2023-04-27T06:16:03.977Z,2786.00
2023-04-27T06:17:03.913Z,2808.00
2023-04-27T06:18:04.042Z,2807.00
2023-04-27T06:19:03.978Z,2805.00
2023-04-27T06:20:03.994Z,2812.00
2023-04-27T06:21:04.063Z,2832.00
2023-04-27T06:22:04.010Z,2838.00
2023-04-27T06:23:04.010Z,2845.00
2023-04-27T06:24:04.011Z,2850.00
2023-04-27T06:25:03.980Z,2837.00
2023-04-27T06:26:04.037Z,2817.00
2023-04-27T06:27:04.044Z,2802.00
2023-04-27T06:28:04.029Z,2816.00
2023-04-27T06:29:04.036Z,2830.00
2023-04-27T06:30:04.011Z,2823.00
2023-04-27T06:31:04.017Z,2825.00
2023-04-27T06:32:04.092Z,2832.00
2023-04-27T06:33:04.041Z,2851.00
2023-04-27T06:34:04.008Z,2874.00
2023-04-27T06:35:04.027Z,2867.00
2023-04-27T06:36:04.067Z,2865.00
2023-04-27T06:37:04.068Z,2844.00
2023-04-27T06:38:05.914Z,2843.00
2023-04-27T06:39:04.072Z,2856.00
2023-04-27T06:40:04.385Z,2858.00
2023-04-27T06:41:04.066Z,2831.00
2023-04-27T06:42:04.084Z,2858.00
2023-04-27T06:43:04.053Z,2853.00
2023-04-27T06:44:04.069Z,2857.00
2023-04-27T06:45:04.048Z,2835.00
2023-04-27T06:46:04.084Z,2837.00
2023-04-27T06:47:04.022Z,2858.00
2023-04-27T06:48:04.050Z,2851.00
2023-04-27T06:49:04.033Z,2836.00
2023-04-27T06:50:04.056Z,2820.00
2023-04-27T06:51:04.047Z,2812.00
2023-04-27T06:52:04.013Z,2822.00
2023-04-27T06:53:04.015Z,2857.00
2023-04-27T06:54:04.002Z,2819.00
2023-04-27T06:55:03.984Z,2838.00
2023-04-27T06:56:03.992Z,2838.00
2023-04-27T06:57:03.959Z,2821.00
2023-04-27T06:58:03.969Z,2825.00
2023-04-27T06:59:03.946Z,2783.00
2023-04-27T07:00:03.939Z,2765.00
2023-04-27T07:01:03.997Z,2764.00
2023-04-27T07:02:03.948Z,2754.00
2023-04-27T07:03:04.068Z,2758.00
2023-04-27T07:04:04.018Z,2785.00
2023-04-27T07:05:03.961Z,2801.00
2023-04-27T07:06:03.912Z,2790.00
2023-04-27T07:07:03.899Z,2792.00
2023-04-27T07:08:06.191Z,2790.00
2023-04-27T07:09:10.442Z,2791.00
2023-04-27T07:10:04.908Z,2792.00
2023-04-27T07:11:03.886Z,2788.00
2023-04-27T07:12:04.053Z,2769.00
2023-04-27T07:13:03.856Z,2748.00
2023-04-27T07:14:03.908Z,2774.00
2023-04-27T07:15:03.861Z,2756.00
2023-04-27T07:16:03.859Z,2732.00
2023-04-27T07:17:03.806Z,2723.00
2023-04-27T07:18:03.872Z,2713.00
2023-04-27T07:19:03.837Z,2693.00
2023-04-27T07:20:03.803Z,2677.00
2023-04-27T07:21:03.813Z,2693.00
2023-04-27T07:22:03.847Z,2736.00
2023-04-27T07:23:03.894Z,2720.00
2023-04-27T07:24:03.909Z,2730.00
2023-04-27T07:25:03.927Z,2778.00
2023-04-27T07:26:03.973Z,2803.00
2023-04-27T07:27:04.041Z,2817.00
2023-04-27T07:28:04.406Z,2815.00
2023-04-27T07:29:11.189Z,2810.00
2023-04-27T07:30:05.073Z,2810.00
2023-04-27T07:31:04.439Z,2816.00
2023-04-27T07:32:04.100Z,2827.00
2023-04-27T07:33:04.153Z,2837.00
2023-04-27T07:34:04.061Z,2840.00
2023-04-27T07:35:04.075Z,2796.00
2023-04-27T07:36:04.056Z,2770.00
2023-04-27T07:37:04.006Z,2758.00
2023-04-27T07:38:04.015Z,2737.00
2023-04-27T07:39:04.007Z,2706.00
2023-04-27T07:40:03.995Z,2718.00
2023-04-27T07:41:04.017Z,2754.00
2023-04-27T07:42:03.991Z,2762.00
2023-04-27T07:43:03.994Z,2778.00
2023-04-27T07:44:03.993Z,2750.00
2023-04-27T07:45:04.002Z,2732.00
2023-04-27T07:46:04.068Z,2725.00
2023-04-27T07:47:04.085Z,2745.00
2023-04-27T07:48:04.142Z,2752.00
2023-04-27T07:49:04.169Z,2711.00
2023-04-27T07:50:04.182Z,2737.00
2023-04-27T07:51:04.167Z,2739.00
2023-04-27T07:52:04.198Z,2728.00
2023-04-27T07:53:04.215Z,2692.00
2023-04-27T07:54:04.220Z,2656.00
2023-04-27T07:55:04.282Z,2663.00
2023-04-27T07:56:04.291Z,2662.00
2023-04-27T07:57:04.297Z,2659.00
2023-04-27T07:58:04.333Z,2641.00
2023-04-27T07:59:04.325Z,2616.00
2023-04-27T08:00:04.446Z,2614.00
2023-04-27T08:01:04.400Z,2641.00
2023-04-27T08:02:18.417Z,2638.00
2023-04-27T08:03:05.577Z,2639.00
2023-04-27T08:04:04.704Z,2588.00
2023-04-27T08:05:04.734Z,2575.00
2023-04-27T08:06:04.897Z,2586.00
2023-04-27T08:07:05.118Z,2560.00
2023-04-27T08:08:04.611Z,2523.00
2023-04-27T08:09:04.404Z,2506.00
2023-04-27T08:10:04.318Z,2523.00
2023-04-27T08:11:04.319Z,2508.00
2023-04-27T08:12:04.319Z,2493.00
2023-04-27T08:13:04.315Z,2477.00
2023-04-27T08:14:04.308Z,2469.00
2023-04-27T08:15:04.312Z,2470.00
2023-04-27T08:16:04.283Z,2496.00
2023-04-27T08:17:04.347Z,2474.00
2023-04-27T08:18:04.292Z,2476.00
2023-04-27T08:19:04.272Z,2427.00
2023-04-27T08:20:04.270Z,2415.00
2023-04-27T08:21:04.250Z,2437.00
2023-04-27T08:22:04.235Z,2468.00
2023-04-27T08:23:04.235Z,2430.00
2023-04-27T08:24:04.240Z,2401.00
2023-04-27T08:25:04.225Z,2409.00
2023-04-27T08:26:04.216Z,2411.00
2023-04-27T08:27:04.221Z,2395.00
2023-04-27T08:28:04.187Z,2439.00
2023-04-27T08:29:15.481Z,2440.00
2023-04-27T08:30:05.168Z,2441.00
2023-04-27T08:31:04.187Z,2442.00
2023-04-27T08:32:04.155Z,2457.00
2023-04-27T08:33:04.350Z,2489.00
2023-04-27T08:34:04.166Z,2425.00
2023-04-27T08:35:04.133Z,2438.00
2023-04-27T08:36:04.153Z,2416.00
2023-04-27T08:37:04.153Z,2413.00
2023-04-27T08:38:04.170Z,2303.00
2023-04-27T08:39:04.101Z,2366.00
2023-04-27T08:40:04.130Z,2339.00
2023-04-27T08:41:18.017Z,2256.00
2023-04-27T08:42:05.092Z,2248.00
2023-04-27T08:43:04.119Z,2083.00
2023-04-27T08:44:04.095Z,1994.00
2023-04-27T08:45:04.093Z,1983.00
2023-04-27T08:46:04.098Z,1971.00
2023-04-27T08:47:04.047Z,1925.00
2023-04-27T08:48:04.078Z,1917.00
2023-04-27T08:49:04.085Z,1884.00
2023-04-27T08:50:04.028Z,1907.00
2023-04-27T08:51:04.004Z,1942.00
2023-04-27T08:52:03.993Z,1905.00
2023-04-27T08:53:04.023Z,1901.00
2023-04-27T08:54:03.981Z,1945.00
2023-04-27T08:55:03.999Z,1967.00
2023-04-27T08:56:03.986Z,1975.00
2023-04-27T08:57:03.984Z,1973.00
2023-04-27T08:58:03.994Z,1979.00
2023-04-27T08:59:03.999Z,2015.00
2023-04-27T09:00:03.965Z,2089.00
2023-04-27T09:01:03.931Z,2166.00
2023-04-27T09:02:03.994Z,2218.00
2023-04-27T09:03:04.140Z,2248.00
2023-04-27T09:04:04.128Z,2243.00
2023-04-27T09:05:04.113Z,2294.00
2023-04-27T09:06:05.597Z,2286.00
2023-04-27T09:07:04.144Z,2329.00
2023-04-27T09:08:04.198Z,2331.00
2023-04-27T09:09:04.263Z,2302.00
2023-04-27T09:10:04.307Z,2318.00
2023-04-27T09:11:04.348Z,2333.00
2023-04-27T09:12:04.375Z,2354.00
2023-04-27T09:13:04.466Z,2354.00
2023-04-27T09:14:04.493Z,2350.00
2023-04-27T09:15:04.529Z,2361.00
2023-04-27T09:16:04.603Z,2343.00
2023-04-27T09:17:04.679Z,2356.00
2023-04-27T09:18:04.767Z,2368.00
2023-04-27T09:19:04.768Z,2351.00
2023-04-27T09:20:04.837Z,2400.00
2023-04-27T09:21:04.884Z,2450.00
2023-04-27T09:22:04.932Z,2411.00
2023-04-27T09:23:05.005Z,2398.00
2023-04-27T09:24:05.018Z,2386.00
2023-04-27T09:25:05.045Z,2363.00
2023-04-27T09:26:05.061Z,2409.00
2023-04-27T09:27:05.203Z,2418.00
2023-04-27T09:28:05.154Z,2407.00
2023-04-27T09:29:05.189Z,2394.00
2023-04-27T09:30:05.234Z,2396.00
2023-04-27T09:31:05.219Z,2396.00
2023-04-27T09:32:05.290Z,2401.00
2023-04-27T09:33:05.274Z,2402.00
2023-04-27T09:34:05.281Z,2398.00
2023-04-27T09:35:05.418Z,2394.00
2023-04-27T09:36:05.440Z,2406.00
2023-04-27T09:37:05.338Z,2364.00
2023-04-27T09:38:05.353Z,2311.00
2023-04-27T09:39:05.340Z,2306.00
2023-04-27T09:40:05.430Z,2244.00
2023-04-27T09:41:05.424Z,2204.00
2023-04-27T09:42:05.439Z,2159.00
2023-04-27T09:43:05.492Z,2116.00
2023-04-27T09:44:05.446Z,2043.00
2023-04-27T09:45:05.518Z,1997.00
2023-04-27T09:46:05.644Z,1979.00
2023-04-27T09:47:05.592Z,1905.00
2023-04-27T09:48:05.610Z,1817.00
2023-04-27T09:49:05.617Z,1775.00
2023-04-27T09:50:05.637Z,1740.00
2023-04-27T09:51:05.704Z,1748.00
2023-04-27T09:52:05.721Z,1690.00
2023-04-27T09:53:05.714Z,1654.00
2023-04-27T09:54:05.763Z,1657.00
2023-04-27T09:55:05.837Z,1640.00
2023-04-27T09:56:05.806Z,1631.00
2023-04-27T09:57:05.860Z,1470.00
2023-04-27T09:58:05.845Z,1373.00
2023-04-27T09:59:05.897Z,1329.00
2023-04-27T10:00:05.906Z,1298.00
2023-04-27T10:01:05.949Z,1237.00
2023-04-27T10:02:20.985Z,1219.00
2023-04-27T10:03:07.021Z,1219.00
2023-04-27T10:04:06.071Z,1147.00
2023-04-27T10:05:05.957Z,1099.00
2023-04-27T10:06:05.945Z,1070.00
2023-04-27T10:07:05.912Z,1106.00
2023-04-27T10:08:05.894Z,1097.00
2023-04-27T10:09:05.892Z,1048.00
2023-04-27T10:10:05.907Z,989.00
2023-04-27T10:11:05.888Z,1015.00
2023-04-27T10:12:05.880Z,1015.00
2023-04-27T10:13:05.898Z,945.00
2023-04-27T10:14:05.873Z,1013.00
2023-04-27T10:15:05.864Z,1024.00
2023-04-27T10:16:05.867Z,1057.00
2023-04-27T10:17:05.926Z,1046.00
2023-04-27T10:18:05.945Z,1046.00
2023-04-27T10:19:05.829Z,1083.00
2023-04-27T10:20:05.838Z,1113.00
2023-04-27T10:21:05.836Z,1173.00
2023-04-27T10:22:05.828Z,1236.00
2023-04-27T10:23:05.814Z,1260.00
2023-04-27T10:24:05.777Z,1286.00
2023-04-27T10:25:05.818Z,1330.00
2023-04-27T10:26:05.784Z,1359.00
2023-04-27T10:27:05.790Z,1380.00
2023-04-27T10:28:05.771Z,1400.00
2023-04-27T10:29:05.751Z,1415.00
2023-04-27T10:30:05.776Z,1429.00
2023-04-27T10:31:05.911Z,1477.00
2023-04-27T10:32:05.916Z,1489.00
2023-04-27T10:33:06.053Z,1678.00
2023-04-27T10:34:06.007Z,1732.00
2023-04-27T10:35:06.104Z,1803.00
2023-04-27T10:36:06.121Z,1777.00
2023-04-27T10:37:06.242Z,1818.00
2023-04-27T10:38:06.302Z,1826.00
2023-04-27T10:39:06.376Z,1780.00
2023-04-27T10:40:06.405Z,1851.00
2023-04-27T10:41:06.453Z,1881.00
2023-04-27T10:42:06.486Z,1896.00
2023-04-27T10:43:06.575Z,1928.00
2023-04-27T10:44:06.624Z,1944.00
2023-04-27T10:45:06.623Z,1984.00
2023-04-27T10:46:06.709Z,1887.00
2023-04-27T10:47:06.714Z,1956.00
2023-04-27T10:48:06.881Z,1943.00
2023-04-27T10:49:06.815Z,1962.00
2023-04-27T10:50:06.854Z,1945.00
2023-04-27T10:51:06.882Z,2083.00
2023-04-27T10:52:06.916Z,1989.00
2023-04-27T10:53:06.934Z,2017.00
2023-04-27T10:54:06.987Z,2057.00
2023-04-27T10:55:06.986Z,1995.00
2023-04-27T10:56:07.213Z,1982.00
2023-04-27T10:57:07.110Z,1972.00
2023-04-27T10:58:07.155Z,2048.00
2023-04-27T10:59:07.182Z,2044.00
2023-04-27T11:00:07.183Z,2075.00
2023-04-27T11:01:07.309Z,2154.00
2023-04-27T11:02:07.376Z,2075.00
2023-04-27T11:03:07.418Z,2039.00
2023-04-27T11:04:07.318Z,2079.00
2023-04-27T11:05:07.472Z,2033.00
2023-04-27T11:06:07.446Z,2081.00
2023-04-27T11:07:07.407Z,2050.00
2023-04-27T11:08:07.492Z,2135.00
2023-04-27T11:09:07.561Z,2108.00
2023-04-27T11:10:07.565Z,2134.00
2023-04-27T11:11:07.546Z,2115.00
2023-04-27T11:12:07.591Z,2070.00
2023-04-27T11:13:07.635Z,2078.00
2023-04-27T11:14:07.671Z,2134.00
2023-04-27T11:15:07.642Z,2097.00
2023-04-27T11:16:07.721Z,2115.00
2023-04-27T11:17:07.650Z,2111.00
2023-04-27T11:18:07.759Z,2134.00
2023-04-27T11:19:07.705Z,2119.00
2023-04-27T11:20:07.737Z,2118.00
2023-04-27T11:21:08.003Z,2026.00
2023-04-27T11:22:07.788Z,1731.00
2023-04-27T11:23:07.850Z,948.00
2023-04-27T11:24:07.866Z,616.00
2023-04-27T11:25:07.978Z,502.00
2023-04-27T11:26:07.980Z,481.00
2023-04-27T11:27:08.031Z,476.00
2023-04-27T11:28:08.078Z,538.00
2023-04-27T11:29:08.109Z,529.00
2023-04-27T11:30:08.508Z,515.00
2023-04-27T11:31:08.299Z,544.00
2023-04-27T11:32:08.280Z,572.00
2023-04-27T11:33:08.445Z,597.00
2023-04-27T11:34:08.367Z,608.00
2023-04-27T11:35:08.429Z,611.00
2023-04-27T11:36:08.467Z,629.00
2023-04-27T11:37:17.167Z,654.00
2023-04-27T11:38:09.462Z,654.00
2023-04-27T11:39:08.548Z,657.00
2023-04-27T11:40:08.461Z,664.00
2023-04-27T11:41:08.458Z,675.00
2023-04-27T11:42:08.433Z,763.00
2023-04-27T11:43:08.440Z,724.00
2023-04-27T11:44:08.452Z,754.00
2023-04-27T11:45:08.452Z,758.00
2023-04-27T11:46:08.448Z,800.00
2023-04-27T11:47:08.550Z,761.00
2023-04-27T11:48:08.485Z,769.00
2023-04-27T11:49:08.457Z,768.00
2023-04-27T11:50:08.419Z,767.00
2023-04-27T11:51:08.383Z,780.00
2023-04-27T11:52:08.400Z,815.00
2023-04-27T11:53:08.470Z,802.00
2023-04-27T11:54:08.497Z,813.00
2023-04-27T11:55:08.580Z,836.00
2023-04-27T11:56:08.590Z,846.00
2023-04-27T11:57:08.618Z,834.00
2023-04-27T11:58:08.693Z,827.00
2023-04-27T11:59:08.746Z,862.00
2023-04-27T12:00:08.800Z,960.00
2023-04-27T12:01:09.153Z,900.00
2023-04-27T12:02:08.942Z,851.00
2023-04-27T12:03:09.202Z,894.00
2023-04-27T12:04:09.161Z,917.00
2023-04-27T12:05:09.294Z,904.00
2023-04-27T12:06:22.066Z,889.00
2023-04-27T12:07:10.143Z,891.00
2023-04-27T12:08:09.213Z,985.00